sensor_id;sensor_type;location;lat;lon;timestamp;P1;durP1;ratioP1;P2;durP2;ratioP2
29908;SDS011;36247;51.952;6.146;2023-02-08T00:01:06;29.02;;;18.52;;
29908;SDS011;36247;51.952;6.146;2023-02-08T00:03:35;29.98;;;19.10;;
29908;SDS011;36247;51.952;6.146;2023-02-08T00:06:02;28.80;;;16.88;;
29908;SDS011;36247;51.952;6.146;2023-02-08T00:08:28;28.70;;;17.88;;
29908;SDS011;36247;51.952;6.146;2023-02-08T00:10:53;28.00;;;18.00;;
29908;SDS011;36247;51.952;6.146;2023-02-08T00:13:19;31.50;;;17.88;;
29908;SDS011;36247;51.952;6.146;2023-02-08T00:15:44;29.60;;;19.05;;
29908;SDS011;36247;51.952;6.146;2023-02-08T00:18:10;32.42;;;18.70;;
29908;SDS011;36247;51.952;6.146;2023-02-08T00:20:37;30.45;;;18.17;;
29908;SDS011;36247;51.952;6.146;2023-02-08T00:23:04;32.00;;;19.00;;
29908;SDS011;36247;51.952;6.146;2023-02-08T00:25:29;31.08;;;18.67;;
29908;SDS011;36247;51.952;6.146;2023-02-08T00:27:55;27.13;;;18.48;;
29908;SDS011;36247;51.952;6.146;2023-02-08T00:30:20;29.58;;;18.38;;
29908;SDS011;36247;51.952;6.146;2023-02-08T00:32:46;30.23;;;17.98;;
29908;SDS011;36247;51.952;6.146;2023-02-08T00:35:12;31.65;;;19.08;;
29908;SDS011;36247;51.952;6.146;2023-02-08T00:37:37;30.10;;;18.85;;
29908;SDS011;36247;51.952;6.146;2023-02-08T00:40:03;30.45;;;17.90;;
29908;SDS011;36247;51.952;6.146;2023-02-08T00:42:29;32.40;;;18.48;;
29908;SDS011;36247;51.952;6.146;2023-02-08T00:44:55;30.50;;;18.88;;
29908;SDS011;36247;51.952;6.146;2023-02-08T00:47:23;31.92;;;20.00;;
29908;SDS011;36247;51.952;6.146;2023-02-08T00:49:49;28.25;;;18.98;;
29908;SDS011;36247;51.952;6.146;2023-02-08T00:52:15;30.95;;;18.55;;
29908;SDS011;36247;51.952;6.146;2023-02-08T00:54:42;26.90;;;17.75;;
29908;SDS011;36247;51.952;6.146;2023-02-08T00:57:07;28.27;;;19.00;;
29908;SDS011;36247;51.952;6.146;2023-02-08T00:59:33;27.75;;;17.45;;
29908;SDS011;36247;51.952;6.146;2023-02-08T01:01:58;27.40;;;17.90;;
29908;SDS011;36247;51.952;6.146;2023-02-08T01:04:24;28.15;;;18.63;;
29908;SDS011;36247;51.952;6.146;2023-02-08T01:06:50;28.40;;;18.38;;
29908;SDS011;36247;51.952;6.146;2023-02-08T01:09:15;28.95;;;18.38;;
29908;SDS011;36247;51.952;6.146;2023-02-08T01:11:41;27.65;;;17.40;;
29908;SDS011;36247;51.952;6.146;2023-02-08T01:14:06;30.08;;;17.95;;
29908;SDS011;36247;51.952;6.146;2023-02-08T01:16:35;31.30;;;18.60;;
29908;SDS011;36247;51.952;6.146;2023-02-08T01:19:02;29.73;;;18.17;;
29908;SDS011;36247;51.952;6.146;2023-02-08T01:21:29;31.85;;;19.13;;
29908;SDS011;36247;51.952;6.146;2023-02-08T01:23:59;31.02;;;19.45;;
29908;SDS011;36247;51.952;6.146;2023-02-08T01:26:28;32.53;;;20.50;;
29908;SDS011;36247;51.952;6.146;2023-02-08T01:28:54;32.95;;;20.80;;
29908;SDS011;36247;51.952;6.146;2023-02-08T01:31:22;30.27;;;19.13;;
29908;SDS011;36247;51.952;6.146;2023-02-08T01:33:50;31.98;;;20.38;;
29908;SDS011;36247;51.952;6.146;2023-02-08T01:36:15;32.60;;;18.95;;
29908;SDS011;36247;51.952;6.146;2023-02-08T01:38:42;29.23;;;19.15;;
29908;SDS011;36247;51.952;6.146;2023-02-08T01:41:10;34.10;;;18.73;;
29908;SDS011;36247;51.952;6.146;2023-02-08T01:43:59;33.63;;;20.00;;
29908;SDS011;36247;51.952;6.146;2023-02-08T01:46:27;36.00;;;20.30;;
29908;SDS011;36247;51.952;6.146;2023-02-08T01:48:53;34.78;;;19.40;;
29908;SDS011;36247;51.952;6.146;2023-02-08T01:51:26;33.45;;;20.38;;
29908;SDS011;36247;51.952;6.146;2023-02-08T01:53:57;33.90;;;20.50;;
29908;SDS011;36247;51.952;6.146;2023-02-08T01:56:28;30.30;;;19.58;;
29908;SDS011;36247;51.952;6.146;2023-02-08T01:58:58;34.90;;;20.65;;
29908;SDS011;36247;51.952;6.146;2023-02-08T02:01:25;34.22;;;20.45;;
29908;SDS011;36247;51.952;6.146;2023-02-08T02:03:53;35.35;;;20.40;;
29908;SDS011;36247;51.952;6.146;2023-02-08T02:06:21;35.13;;;21.13;;
29908;SDS011;36247;51.952;6.146;2023-02-08T02:09:02;32.55;;;20.50;;
29908;SDS011;36247;51.952;6.146;2023-02-08T02:11:29;32.55;;;19.98;;
29908;SDS011;36247;51.952;6.146;2023-02-08T02:13:55;34.45;;;20.17;;
29908;SDS011;36247;51.952;6.146;2023-02-08T02:16:21;34.65;;;21.20;;
29908;SDS011;36247;51.952;6.146;2023-02-08T02:18:46;34.50;;;19.83;;
29908;SDS011;36247;51.952;6.146;2023-02-08T02:25:10;29.83;;;19.52;;
29908;SDS011;36247;51.952;6.146;2023-02-08T02:27:16;33.88;;;20.38;;
29908;SDS011;36247;51.952;6.146;2023-02-08T02:32:37;32.45;;;20.42;;
29908;SDS011;36247;51.952;6.146;2023-02-08T02:43:44;31.98;;;19.48;;
29908;SDS011;36247;51.952;6.146;2023-02-08T02:48:51;33.83;;;19.08;;
29908;SDS011;36247;51.952;6.146;2023-02-08T02:54:11;29.80;;;18.60;;
29908;SDS011;36247;51.952;6.146;2023-02-08T02:56:43;30.40;;;18.77;;
29908;SDS011;36247;51.952;6.146;2023-02-08T02:59:10;30.60;;;17.90;;
29908;SDS011;36247;51.952;6.146;2023-02-08T03:01:37;31.92;;;19.13;;
29908;SDS011;36247;51.952;6.146;2023-02-08T03:20:46;32.00;;;19.13;;
29908;SDS011;36247;51.952;6.146;2023-02-08T03:23:21;37.45;;;20.73;;
29908;SDS011;36247;51.952;6.146;2023-02-08T03:29:25;30.42;;;19.35;;
29908;SDS011;36247;51.952;6.146;2023-02-08T03:32:37;36.25;;;21.02;;
29908;SDS011;36247;51.952;6.146;2023-02-08T03:34:50;33.63;;;19.92;;
29908;SDS011;36247;51.952;6.146;2023-02-08T03:37:25;37.15;;;21.02;;
29908;SDS011;36247;51.952;6.146;2023-02-08T03:40:04;32.47;;;19.42;;
29908;SDS011;36247;51.952;6.146;2023-02-08T03:42:36;31.92;;;19.48;;
29908;SDS011;36247;51.952;6.146;2023-02-08T03:45:08;31.05;;;19.70;;
29908;SDS011;36247;51.952;6.146;2023-02-08T03:47:48;36.40;;;20.58;;
29908;SDS011;36247;51.952;6.146;2023-02-08T03:50:16;33.05;;;20.25;;
29908;SDS011;36247;51.952;6.146;2023-02-08T03:52:45;37.63;;;21.13;;
29908;SDS011;36247;51.952;6.146;2023-02-08T03:55:16;34.10;;;20.67;;
29908;SDS011;36247;51.952;6.146;2023-02-08T03:57:47;36.28;;;19.42;;
29908;SDS011;36247;51.952;6.146;2023-02-08T04:00:20;33.05;;;20.25;;
29908;SDS011;36247;51.952;6.146;2023-02-08T04:02:54;34.35;;;20.58;;
29908;SDS011;36247;51.952;6.146;2023-02-08T04:05:23;31.10;;;19.33;;
29908;SDS011;36247;51.952;6.146;2023-02-08T04:07:50;35.22;;;20.17;;
29908;SDS011;36247;51.952;6.146;2023-02-08T04:10:16;33.15;;;20.38;;
29908;SDS011;36247;51.952;6.146;2023-02-08T04:12:41;33.55;;;19.48;;
29908;SDS011;36247;51.952;6.146;2023-02-08T04:15:08;36.25;;;20.33;;
29908;SDS011;36247;51.952;6.146;2023-02-08T04:17:33;34.30;;;20.13;;
29908;SDS011;36247;51.952;6.146;2023-02-08T04:19:59;38.53;;;21.85;;
29908;SDS011;36247;51.952;6.146;2023-02-08T04:22:25;37.80;;;20.30;;
29908;SDS011;36247;51.952;6.146;2023-02-08T04:24:50;37.35;;;20.27;;
29908;SDS011;36247;51.952;6.146;2023-02-08T04:27:16;39.47;;;20.20;;
29908;SDS011;36247;51.952;6.146;2023-02-08T04:29:41;35.38;;;19.98;;
29908;SDS011;36247;51.952;6.146;2023-02-08T04:32:06;35.65;;;20.55;;
29908;SDS011;36247;51.952;6.146;2023-02-08T04:34:36;37.47;;;20.60;;
29908;SDS011;36247;51.952;6.146;2023-02-08T04:37:05;35.15;;;20.60;;
29908;SDS011;36247;51.952;6.146;2023-02-08T04:39:31;35.58;;;20.33;;
29908;SDS011;36247;51.952;6.146;2023-02-08T04:41:56;41.63;;;20.67;;
29908;SDS011;36247;51.952;6.146;2023-02-08T04:44:22;37.45;;;21.33;;
29908;SDS011;36247;51.952;6.146;2023-02-08T04:46:47;32.58;;;20.63;;
29908;SDS011;36247;51.952;6.146;2023-02-08T04:49:12;34.08;;;19.35;;
29908;SDS011;36247;51.952;6.146;2023-02-08T04:51:38;39.05;;;20.55;;
29908;SDS011;36247;51.952;6.146;2023-02-08T04:54:03;34.97;;;20.60;;
29908;SDS011;36247;51.952;6.146;2023-02-08T04:56:28;37.17;;;21.48;;
29908;SDS011;36247;51.952;6.146;2023-02-08T04:58:54;35.70;;;20.25;;
29908;SDS011;36247;51.952;6.146;2023-02-08T05:01:19;38.40;;;22.42;;
29908;SDS011;36247;51.952;6.146;2023-02-08T05:03:45;34.67;;;20.88;;
29908;SDS011;36247;51.952;6.146;2023-02-08T05:06:11;37.65;;;20.70;;
29908;SDS011;36247;51.952;6.146;2023-02-08T05:08:37;39.50;;;21.83;;
29908;SDS011;36247;51.952;6.146;2023-02-08T05:11:02;36.17;;;21.88;;
29908;SDS011;36247;51.952;6.146;2023-02-08T05:13:28;34.90;;;20.80;;
29908;SDS011;36247;51.952;6.146;2023-02-08T05:15:53;35.58;;;21.17;;
29908;SDS011;36247;51.952;6.146;2023-02-08T05:18:19;37.03;;;20.58;;
29908;SDS011;36247;51.952;6.146;2023-02-08T05:20:44;39.10;;;21.60;;
29908;SDS011;36247;51.952;6.146;2023-02-08T05:23:10;35.55;;;20.40;;
29908;SDS011;36247;51.952;6.146;2023-02-08T05:25:36;40.08;;;21.55;;
29908;SDS011;36247;51.952;6.146;2023-02-08T05:28:02;38.53;;;20.73;;
29908;SDS011;36247;51.952;6.146;2023-02-08T05:30:28;33.72;;;19.67;;
29908;SDS011;36247;51.952;6.146;2023-02-08T05:32:53;34.88;;;21.05;;
29908;SDS011;36247;51.952;6.146;2023-02-08T05:35:19;36.75;;;21.05;;
29908;SDS011;36247;51.952;6.146;2023-02-08T05:37:44;39.65;;;21.02;;
29908;SDS011;36247;51.952;6.146;2023-02-08T05:40:10;38.22;;;21.10;;
29908;SDS011;36247;51.952;6.146;2023-02-08T05:42:37;40.55;;;22.33;;
29908;SDS011;36247;51.952;6.146;2023-02-08T05:45:03;45.33;;;22.40;;
29908;SDS011;36247;51.952;6.146;2023-02-08T05:47:29;44.58;;;23.38;;
29908;SDS011;36247;51.952;6.146;2023-02-08T05:49:54;61.00;;;27.13;;
29908;SDS011;36247;51.952;6.146;2023-02-08T05:52:19;62.15;;;27.30;;
29908;SDS011;36247;51.952;6.146;2023-02-08T05:54:45;43.72;;;22.27;;
29908;SDS011;36247;51.952;6.146;2023-02-08T05:57:10;43.47;;;22.13;;
29908;SDS011;36247;51.952;6.146;2023-02-08T05:59:36;38.38;;;22.33;;
29908;SDS011;36247;51.952;6.146;2023-02-08T06:02:01;33.60;;;20.25;;
29908;SDS011;36247;51.952;6.146;2023-02-08T06:04:26;34.20;;;20.05;;
29908;SDS011;36247;51.952;6.146;2023-02-08T06:06:52;37.80;;;20.48;;
29908;SDS011;36247;51.952;6.146;2023-02-08T06:09:17;40.58;;;21.98;;
29908;SDS011;36247;51.952;6.146;2023-02-08T06:11:43;36.33;;;20.75;;
29908;SDS011;36247;51.952;6.146;2023-02-08T06:14:08;39.47;;;23.02;;
29908;SDS011;36247;51.952;6.146;2023-02-08T06:16:34;38.85;;;21.17;;
29908;SDS011;36247;51.952;6.146;2023-02-08T06:18:59;38.50;;;21.58;;
29908;SDS011;36247;51.952;6.146;2023-02-08T06:21:25;43.58;;;24.27;;
29908;SDS011;36247;51.952;6.146;2023-02-08T06:23:50;40.00;;;23.05;;
29908;SDS011;36247;51.952;6.146;2023-02-08T06:26:15;41.95;;;23.88;;
29908;SDS011;36247;51.952;6.146;2023-02-08T06:28:41;42.97;;;22.38;;
29908;SDS011;36247;51.952;6.146;2023-02-08T06:31:06;44.95;;;23.85;;
29908;SDS011;36247;51.952;6.146;2023-02-08T06:33:31;41.33;;;22.75;;
29908;SDS011;36247;51.952;6.146;2023-02-08T06:35:57;43.38;;;22.95;;
29908;SDS011;36247;51.952;6.146;2023-02-08T06:38:22;41.78;;;22.25;;
29908;SDS011;36247;51.952;6.146;2023-02-08T06:40:48;39.97;;;21.52;;
29908;SDS011;36247;51.952;6.146;2023-02-08T06:43:14;35.50;;;21.35;;
29908;SDS011;36247;51.952;6.146;2023-02-08T06:45:40;36.67;;;21.65;;
29908;SDS011;36247;51.952;6.146;2023-02-08T06:48:09;44.97;;;22.35;;
29908;SDS011;36247;51.952;6.146;2023-02-08T06:50:34;40.25;;;22.55;;
29908;SDS011;36247;51.952;6.146;2023-02-08T06:53:01;38.70;;;21.35;;
29908;SDS011;36247;51.952;6.146;2023-02-08T06:55:27;40.58;;;21.70;;
29908;SDS011;36247;51.952;6.146;2023-02-08T06:57:53;40.75;;;23.98;;
29908;SDS011;36247;51.952;6.146;2023-02-08T07:00:19;42.30;;;22.60;;
29908;SDS011;36247;51.952;6.146;2023-02-08T07:02:44;39.55;;;22.95;;
29908;SDS011;36247;51.952;6.146;2023-02-08T07:05:13;41.03;;;23.45;;
29908;SDS011;36247;51.952;6.146;2023-02-08T07:07:39;43.90;;;23.08;;
29908;SDS011;36247;51.952;6.146;2023-02-08T07:10:04;40.25;;;23.35;;
29908;SDS011;36247;51.952;6.146;2023-02-08T07:12:34;40.97;;;21.77;;
29908;SDS011;36247;51.952;6.146;2023-02-08T07:15:01;42.13;;;21.33;;
29908;SDS011;36247;51.952;6.146;2023-02-08T07:17:27;42.08;;;21.95;;
29908;SDS011;36247;51.952;6.146;2023-02-08T07:19:52;34.60;;;20.00;;
29908;SDS011;36247;51.952;6.146;2023-02-08T07:22:18;37.50;;;20.30;;
29908;SDS011;36247;51.952;6.146;2023-02-08T07:24:43;39.22;;;20.63;;
29908;SDS011;36247;51.952;6.146;2023-02-08T07:27:10;41.70;;;21.80;;
29908;SDS011;36247;51.952;6.146;2023-02-08T07:29:36;36.55;;;20.67;;
29908;SDS011;36247;51.952;6.146;2023-02-08T07:32:03;41.33;;;21.23;;
29908;SDS011;36247;51.952;6.146;2023-02-08T07:34:30;36.70;;;20.35;;
29908;SDS011;36247;51.952;6.146;2023-02-08T07:37:01;37.33;;;21.63;;
29908;SDS011;36247;51.952;6.146;2023-02-08T07:39:26;40.88;;;22.83;;
29908;SDS011;36247;51.952;6.146;2023-02-08T07:41:52;38.03;;;22.50;;
29908;SDS011;36247;51.952;6.146;2023-02-08T07:44:18;43.85;;;23.98;;
29908;SDS011;36247;51.952;6.146;2023-02-08T07:46:44;43.88;;;23.17;;
29908;SDS011;36247;51.952;6.146;2023-02-08T07:49:09;49.90;;;22.13;;
29908;SDS011;36247;51.952;6.146;2023-02-08T07:51:35;42.92;;;22.10;;
29908;SDS011;36247;51.952;6.146;2023-02-08T07:54:01;41.13;;;23.33;;
29908;SDS011;36247;51.952;6.146;2023-02-08T07:56:26;37.83;;;22.35;;
29908;SDS011;36247;51.952;6.146;2023-02-08T07:58:52;36.95;;;19.83;;
29908;SDS011;36247;51.952;6.146;2023-02-08T08:01:17;35.88;;;20.58;;
29908;SDS011;36247;51.952;6.146;2023-02-08T08:03:43;35.65;;;21.10;;
29908;SDS011;36247;51.952;6.146;2023-02-08T08:06:08;41.67;;;21.83;;
29908;SDS011;36247;51.952;6.146;2023-02-08T08:08:34;34.55;;;20.83;;
29908;SDS011;36247;51.952;6.146;2023-02-08T08:10:59;40.92;;;22.92;;
29908;SDS011;36247;51.952;6.146;2023-02-08T08:13:25;37.17;;;21.27;;
29908;SDS011;36247;51.952;6.146;2023-02-08T08:15:50;35.10;;;19.27;;
29908;SDS011;36247;51.952;6.146;2023-02-08T08:18:16;33.17;;;22.30;;
29908;SDS011;36247;51.952;6.146;2023-02-08T08:20:41;33.58;;;20.75;;
29908;SDS011;36247;51.952;6.146;2023-02-08T08:23:07;35.70;;;20.60;;
29908;SDS011;36247;51.952;6.146;2023-02-08T08:25:32;34.67;;;20.90;;
29908;SDS011;36247;51.952;6.146;2023-02-08T08:27:58;38.83;;;20.42;;
29908;SDS011;36247;51.952;6.146;2023-02-08T08:30:23;29.35;;;18.85;;
29908;SDS011;36247;51.952;6.146;2023-02-08T08:32:49;34.30;;;19.60;;
29908;SDS011;36247;51.952;6.146;2023-02-08T08:35:14;28.70;;;19.35;;
29908;SDS011;36247;51.952;6.146;2023-02-08T08:37:39;33.72;;;19.75;;
29908;SDS011;36247;51.952;6.146;2023-02-08T08:40:05;38.97;;;21.70;;
29908;SDS011;36247;51.952;6.146;2023-02-08T08:42:33;33.35;;;20.02;;
29908;SDS011;36247;51.952;6.146;2023-02-08T08:44:59;43.70;;;21.30;;
29908;SDS011;36247;51.952;6.146;2023-02-08T08:47:24;31.42;;;19.85;;
29908;SDS011;36247;51.952;6.146;2023-02-08T08:49:49;31.08;;;19.73;;
29908;SDS011;36247;51.952;6.146;2023-02-08T08:52:15;20.02;;;13.30;;
29908;SDS011;36247;51.952;6.146;2023-02-08T08:54:40;25.85;;;13.75;;
29908;SDS011;36247;51.952;6.146;2023-02-08T08:57:06;18.50;;;11.63;;
29908;SDS011;36247;51.952;6.146;2023-02-08T08:59:32;21.05;;;11.38;;
29908;SDS011;36247;51.952;6.146;2023-02-08T09:01:58;21.30;;;12.77;;
29908;SDS011;36247;51.952;6.146;2023-02-08T09:04:23;22.85;;;12.07;;
29908;SDS011;36247;51.952;6.146;2023-02-08T09:06:49;31.88;;;12.38;;
29908;SDS011;36247;51.952;6.146;2023-02-08T09:09:16;20.38;;;11.80;;
29908;SDS011;36247;51.952;6.146;2023-02-08T09:11:42;21.52;;;12.10;;
29908;SDS011;36247;51.952;6.146;2023-02-08T09:14:07;19.30;;;11.95;;
29908;SDS011;36247;51.952;6.146;2023-02-08T09:16:33;21.27;;;12.02;;
29908;SDS011;36247;51.952;6.146;2023-02-08T09:18:59;20.13;;;13.10;;
29908;SDS011;36247;51.952;6.146;2023-02-08T09:21:28;18.65;;;12.07;;
29908;SDS011;36247;51.952;6.146;2023-02-08T09:23:54;16.27;;;11.10;;
29908;SDS011;36247;51.952;6.146;2023-02-08T09:26:20;20.13;;;11.30;;
29908;SDS011;36247;51.952;6.146;2023-02-08T09:28:45;22.13;;;13.30;;
29908;SDS011;36247;51.952;6.146;2023-02-08T09:31:12;19.73;;;11.68;;
29908;SDS011;36247;51.952;6.146;2023-02-08T09:33:42;24.23;;;11.77;;
29908;SDS011;36247;51.952;6.146;2023-02-08T09:36:07;22.27;;;12.10;;
29908;SDS011;36247;51.952;6.146;2023-02-08T09:38:34;20.90;;;12.27;;
29908;SDS011;36247;51.952;6.146;2023-02-08T09:43:51;17.65;;;11.18;;
29908;SDS011;36247;51.952;6.146;2023-02-08T09:46:39;18.95;;;11.02;;
29908;SDS011;36247;51.952;6.146;2023-02-08T09:49:09;21.52;;;11.60;;
29908;SDS011;36247;51.952;6.146;2023-02-08T09:52:02;19.88;;;12.27;;
29908;SDS011;36247;51.952;6.146;2023-02-08T09:54:35;23.83;;;11.88;;
29908;SDS011;36247;51.952;6.146;2023-02-08T09:57:07;21.45;;;11.20;;
29908;SDS011;36247;51.952;6.146;2023-02-08T10:07:38;19.30;;;11.05;;
29908;SDS011;36247;51.952;6.146;2023-02-08T10:10:07;18.95;;;10.77;;
29908;SDS011;36247;51.952;6.146;2023-02-08T10:15:48;19.73;;;10.85;;
29908;SDS011;36247;51.952;6.146;2023-02-08T10:18:33;16.73;;;10.82;;
29908;SDS011;36247;51.952;6.146;2023-02-08T10:24:04;17.35;;;10.20;;
29908;SDS011;36247;51.952;6.146;2023-02-08T10:26:46;16.10;;;10.85;;
29908;SDS011;36247;51.952;6.146;2023-02-08T10:37:35;18.00;;;10.50;;
29908;SDS011;36247;51.952;6.146;2023-02-08T10:45:24;18.08;;;9.80;;
29908;SDS011;36247;51.952;6.146;2023-02-08T10:47:54;15.15;;;10.20;;
29908;SDS011;36247;51.952;6.146;2023-02-08T10:53:04;19.38;;;9.93;;
29908;SDS011;36247;51.952;6.146;2023-02-08T10:55:31;13.95;;;8.88;;
29908;SDS011;36247;51.952;6.146;2023-02-08T10:58:01;13.88;;;10.20;;
29908;SDS011;36247;51.952;6.146;2023-02-08T11:00:30;14.02;;;9.20;;
29908;SDS011;36247;51.952;6.146;2023-02-08T11:02:58;13.38;;;8.95;;
29908;SDS011;36247;51.952;6.146;2023-02-08T11:05:36;13.85;;;9.57;;
29908;SDS011;36247;51.952;6.146;2023-02-08T11:08:06;12.98;;;9.25;;
29908;SDS011;36247;51.952;6.146;2023-02-08T11:10:33;17.40;;;9.13;;
29908;SDS011;36247;51.952;6.146;2023-02-08T11:13:02;16.05;;;9.02;;
29908;SDS011;36247;51.952;6.146;2023-02-08T11:20:58;13.82;;;9.15;;
29908;SDS011;36247;51.952;6.146;2023-02-08T11:23:30;12.15;;;8.23;;
29908;SDS011;36247;51.952;6.146;2023-02-08T11:28:42;14.70;;;8.75;;
29908;SDS011;36247;51.952;6.146;2023-02-08T11:31:16;13.10;;;8.98;;
29908;SDS011;36247;51.952;6.146;2023-02-08T11:33:56;12.10;;;8.05;;
29908;SDS011;36247;51.952;6.146;2023-02-08T11:36:26;14.07;;;9.50;;
29908;SDS011;36247;51.952;6.146;2023-02-08T11:38:53;12.10;;;7.88;;
29908;SDS011;36247;51.952;6.146;2023-02-08T11:41:20;16.23;;;7.45;;
29908;SDS011;36247;51.952;6.146;2023-02-08T11:43:56;12.05;;;8.35;;
29908;SDS011;36247;51.952;6.146;2023-02-08T11:46:30;13.68;;;8.48;;
29908;SDS011;36247;51.952;6.146;2023-02-08T11:49:00;11.82;;;7.97;;
29908;SDS011;36247;51.952;6.146;2023-02-08T11:51:33;13.50;;;8.38;;
29908;SDS011;36247;51.952;6.146;2023-02-08T11:54:02;10.38;;;7.72;;
29908;SDS011;36247;51.952;6.146;2023-02-08T11:56:29;9.48;;;7.72;;
29908;SDS011;36247;51.952;6.146;2023-02-08T12:01:37;13.68;;;7.80;;
29908;SDS011;36247;51.952;6.146;2023-02-08T12:04:14;13.77;;;7.80;;
29908;SDS011;36247;51.952;6.146;2023-02-08T12:10:00;10.88;;;7.72;;
29908;SDS011;36247;51.952;6.146;2023-02-08T12:12:42;13.18;;;8.18;;
29908;SDS011;36247;51.952;6.146;2023-02-08T12:15:34;11.15;;;7.53;;
29908;SDS011;36247;51.952;6.146;2023-02-08T12:21:16;10.82;;;7.50;;
29908;SDS011;36247;51.952;6.146;2023-02-08T12:23:54;11.98;;;7.57;;
29908;SDS011;36247;51.952;6.146;2023-02-08T12:26:33;8.40;;;6.72;;
29908;SDS011;36247;51.952;6.146;2023-02-08T12:29:21;11.57;;;6.82;;
29908;SDS011;36247;51.952;6.146;2023-02-08T12:35:07;9.95;;;6.80;;
29908;SDS011;36247;51.952;6.146;2023-02-08T12:38:10;8.38;;;5.32;;
29908;SDS011;36247;51.952;6.146;2023-02-08T12:41:22;8.63;;;5.90;;
29908;SDS011;36247;51.952;6.146;2023-02-08T12:44:01;6.75;;;4.93;;
29908;SDS011;36247;51.952;6.146;2023-02-08T12:49:37;9.27;;;5.07;;
29908;SDS011;36247;51.952;6.146;2023-02-08T12:52:31;6.53;;;4.75;;
29908;SDS011;36247;51.952;6.146;2023-02-08T12:55:12;6.32;;;5.00;;
29908;SDS011;36247;51.952;6.146;2023-02-08T12:57:40;6.72;;;5.35;;
29908;SDS011;36247;51.952;6.146;2023-02-08T13:00:25;7.03;;;5.05;;
29908;SDS011;36247;51.952;6.146;2023-02-08T13:05:32;7.40;;;5.20;;
29908;SDS011;36247;51.952;6.146;2023-02-08T13:08:02;7.97;;;5.18;;
29908;SDS011;36247;51.952;6.146;2023-02-08T13:10:40;12.20;;;5.07;;
29908;SDS011;36247;51.952;6.146;2023-02-08T13:15:45;8.63;;;4.70;;
29908;SDS011;36247;51.952;6.146;2023-02-08T13:23:30;7.35;;;4.65;;
29908;SDS011;36247;51.952;6.146;2023-02-08T13:26:01;6.93;;;5.10;;
29908;SDS011;36247;51.952;6.146;2023-02-08T13:28:32;10.40;;;5.70;;
29908;SDS011;36247;51.952;6.146;2023-02-08T13:31:01;6.38;;;5.13;;
29908;SDS011;36247;51.952;6.146;2023-02-08T13:33:33;12.95;;;5.43;;
29908;SDS011;36247;51.952;6.146;2023-02-08T13:36:19;10.98;;;6.10;;
29908;SDS011;36247;51.952;6.146;2023-02-08T13:38:47;8.15;;;5.40;;
29908;SDS011;36247;51.952;6.146;2023-02-08T13:41:20;9.70;;;5.30;;
29908;SDS011;36247;51.952;6.146;2023-02-08T13:43:49;13.70;;;5.90;;
29908;SDS011;36247;51.952;6.146;2023-02-08T13:46:20;8.20;;;6.20;;
29908;SDS011;36247;51.952;6.146;2023-02-08T13:59:22;7.97;;;5.57;;
29908;SDS011;36247;51.952;6.146;2023-02-08T14:04:51;8.63;;;5.90;;
29908;SDS011;36247;51.952;6.146;2023-02-08T14:07:39;12.15;;;6.07;;
29908;SDS011;36247;51.952;6.146;2023-02-08T14:10:15;7.55;;;5.78;;
29908;SDS011;36247;51.952;6.146;2023-02-08T14:17:43;11.50;;;6.63;;
29908;SDS011;36247;51.952;6.146;2023-02-08T14:20:30;8.05;;;5.97;;
29908;SDS011;36247;51.952;6.146;2023-02-08T14:23:00;9.75;;;6.78;;
29908;SDS011;36247;51.952;6.146;2023-02-08T14:25:39;11.02;;;7.13;;
29908;SDS011;36247;51.952;6.146;2023-02-08T14:28:15;10.25;;;6.57;;
29908;SDS011;36247;51.952;6.146;2023-02-08T14:30:52;7.28;;;6.05;;
29908;SDS011;36247;51.952;6.146;2023-02-08T14:33:21;7.85;;;7.00;;
29908;SDS011;36247;51.952;6.146;2023-02-08T14:35:54;9.82;;;6.35;;
29908;SDS011;36247;51.952;6.146;2023-02-08T14:40:51;11.48;;;7.43;;
29908;SDS011;36247;51.952;6.146;2023-02-08T14:45:58;10.13;;;7.13;;
29908;SDS011;36247;51.952;6.146;2023-02-08T14:49:01;9.10;;;6.85;;
29908;SDS011;36247;51.952;6.146;2023-02-08T14:51:30;8.13;;;6.93;;
29908;SDS011;36247;51.952;6.146;2023-02-08T14:54:09;8.90;;;6.50;;
29908;SDS011;36247;51.952;6.146;2023-02-08T14:56:49;11.18;;;6.43;;
29908;SDS011;36247;51.952;6.146;2023-02-08T14:59:19;9.13;;;6.30;;
29908;SDS011;36247;51.952;6.146;2023-02-08T15:01:55;8.93;;;6.40;;
29908;SDS011;36247;51.952;6.146;2023-02-08T15:04:23;10.85;;;6.55;;
29908;SDS011;36247;51.952;6.146;2023-02-08T15:06:51;15.43;;;7.05;;
29908;SDS011;36247;51.952;6.146;2023-02-08T15:09:38;8.50;;;6.65;;
29908;SDS011;36247;51.952;6.146;2023-02-08T15:14:56;12.13;;;6.88;;
29908;SDS011;36247;51.952;6.146;2023-02-08T15:19:59;8.25;;;6.07;;
29908;SDS011;36247;51.952;6.146;2023-02-08T15:22:30;9.73;;;6.60;;
29908;SDS011;36247;51.952;6.146;2023-02-08T15:24:59;8.27;;;6.15;;
29908;SDS011;36247;51.952;6.146;2023-02-08T15:27:27;9.52;;;6.40;;
29908;SDS011;36247;51.952;6.146;2023-02-08T15:29:55;10.18;;;6.40;;
29908;SDS011;36247;51.952;6.146;2023-02-08T15:32:21;12.57;;;7.28;;
29908;SDS011;36247;51.952;6.146;2023-02-08T15:34:52;8.85;;;6.97;;
29908;SDS011;36247;51.952;6.146;2023-02-08T15:37:20;10.30;;;7.07;;
29908;SDS011;36247;51.952;6.146;2023-02-08T15:39:50;10.25;;;6.38;;
29908;SDS011;36247;51.952;6.146;2023-02-08T15:42:19;9.70;;;6.78;;
29908;SDS011;36247;51.952;6.146;2023-02-08T15:44:49;11.95;;;6.95;;
29908;SDS011;36247;51.952;6.146;2023-02-08T15:49:44;9.02;;;6.00;;
29908;SDS011;36247;51.952;6.146;2023-02-08T15:52:14;9.38;;;6.53;;
29908;SDS011;36247;51.952;6.146;2023-02-08T15:54:41;10.85;;;6.75;;
29908;SDS011;36247;51.952;6.146;2023-02-08T15:57:19;10.38;;;7.18;;
29908;SDS011;36247;51.952;6.146;2023-02-08T15:59:45;11.93;;;7.45;;
29908;SDS011;36247;51.952;6.146;2023-02-08T16:02:17;9.77;;;6.68;;
29908;SDS011;36247;51.952;6.146;2023-02-08T16:04:45;10.15;;;6.70;;
29908;SDS011;36247;51.952;6.146;2023-02-08T16:07:24;9.27;;;6.80;;
29908;SDS011;36247;51.952;6.146;2023-02-08T16:09:57;13.30;;;7.07;;
29908;SDS011;36247;51.952;6.146;2023-02-08T16:12:23;11.60;;;7.80;;
29908;SDS011;36247;51.952;6.146;2023-02-08T16:14:51;11.48;;;6.80;;
29908;SDS011;36247;51.952;6.146;2023-02-08T16:20:28;15.25;;;8.25;;
29908;SDS011;36247;51.952;6.146;2023-02-08T16:25:44;16.10;;;8.93;;
29908;SDS011;36247;51.952;6.146;2023-02-08T16:28:31;15.52;;;10.00;;
29908;SDS011;36247;51.952;6.146;2023-02-08T16:30:57;17.17;;;8.63;;
29908;SDS011;36247;51.952;6.146;2023-02-08T16:33:24;12.55;;;7.45;;
29908;SDS011;36247;51.952;6.146;2023-02-08T16:35:51;14.32;;;9.52;;
29908;SDS011;36247;51.952;6.146;2023-02-08T16:38:18;16.38;;;9.15;;
29908;SDS011;36247;51.952;6.146;2023-02-08T16:43:20;20.00;;;10.40;;
29908;SDS011;36247;51.952;6.146;2023-02-08T16:48:33;17.70;;;10.68;;
29908;SDS011;36247;51.952;6.146;2023-02-08T16:51:00;16.10;;;9.93;;
29908;SDS011;36247;51.952;6.146;2023-02-08T16:53:27;16.13;;;9.60;;
29908;SDS011;36247;51.952;6.146;2023-02-08T16:55:54;16.45;;;9.20;;
29908;SDS011;36247;51.952;6.146;2023-02-08T16:58:20;14.45;;;8.63;;
29908;SDS011;36247;51.952;6.146;2023-02-08T17:00:45;17.00;;;9.25;;
29908;SDS011;36247;51.952;6.146;2023-02-08T17:03:11;20.30;;;10.50;;
29908;SDS011;36247;51.952;6.146;2023-02-08T17:05:37;16.98;;;10.07;;
29908;SDS011;36247;51.952;6.146;2023-02-08T17:08:04;17.38;;;10.10;;
29908;SDS011;36247;51.952;6.146;2023-02-08T17:10:32;17.02;;;9.82;;